Time;durP1;ratioP1;P1;durP2;ratioP2;P2;SDS_P1;SDS_P2;PMS_P1;PMS_P2;Temp;Humidity;BMP_temperature;BMP_pressure;BME280_temperature;BME280_humidity;BME280_pressure;Samples;Min_cycle;Max_cycle;Signal;HPM_P1;HPM_P2
2023/06/25 00:00:34;;;;;;;16.70;10.98;;;18.90;99.90;;;;;;5019124;28;20055;-77
2023/06/25 00:02:59;;;;;;;18.10;11.13;;;19.00;99.90;;;;;;5018894;28;20034;-76
2023/06/25 00:05:25;;;;;;;17.08;10.93;;;18.90;99.90;;;;;;5019130;28;20091;-76
2023/06/25 00:07:51;;;;;;;17.15;10.65;;;18.90;99.90;;;;;;5002726;28;20034;-76
2023/06/25 00:10:18;;;;;;;17.95;10.75;;;18.80;99.90;;;;;;5002726;28;20030;-76
2023/06/25 00:12:44;;;;;;;15.25;10.02;;;18.80;99.90;;;;;;5002499;28;20038;-76
2023/06/25 00:15:11;;;;;;;16.02;9.95;;;18.80;99.90;;;;;;5002812;28;20033;-76
2023/06/25 00:17:37;;;;;;;15.13;9.70;;;18.80;99.90;;;;;;5017822;28;20034;-76
2023/06/25 00:20:03;;;;;;;14.48;9.68;;;18.80;99.90;;;;;;5002131;28;20112;-76
2023/06/25 00:22:29;;;;;;;15.15;9.55;;;18.80;99.90;;;;;;5002583;28;20167;-76
2023/06/25 00:24:55;;;;;;;16.13;9.70;;;18.80;99.90;;;;;;5002518;28;20309;-76
2023/06/25 00:27:20;;;;;;;15.63;10.30;;;18.70;99.90;;;;;;5018722;28;20026;-77
2023/06/25 00:29:46;;;;;;;15.80;9.98;;;18.70;99.90;;;;;;4998185;28;20187;-77
2023/06/25 00:32:15;;;;;;;16.05;10.10;;;18.60;99.90;;;;;;4976880;28;20065;-76
2023/06/25 00:34:41;;;;;;;16.55;11.30;;;18.60;99.90;;;;;;4969389;28;20256;-76
2023/06/25 00:37:17;;;;;;;17.27;10.98;;;18.60;99.90;;;;;;4979879;28;20041;-76
2023/06/25 00:39:44;;;;;;;16.55;10.60;;;18.60;99.90;;;;;;4975907;28;20027;-76
2023/06/25 00:42:10;;;;;;;17.38;10.05;;;18.50;99.90;;;;;;4979450;28;20053;-76
2023/06/25 00:44:40;;;;;;;17.17;10.73;;;18.50;99.90;;;;;;4979456;28;20296;-76
2023/06/25 00:47:15;;;;;;;18.27;11.25;;;18.50;99.90;;;;;;4979413;28;20256;-76
2023/06/25 00:49:42;;;;;;;16.65;10.18;;;18.50;99.90;;;;;;4979553;28;20073;-76
2023/06/25 00:52:11;;;;;;;17.48;11.43;;;18.50;99.90;;;;;;4979402;28;20273;-77
2023/06/25 00:54:41;;;;;;;17.10;10.85;;;18.40;99.90;;;;;;4979874;28;20062;-76
2023/06/25 00:57:09;;;;;;;17.15;10.73;;;18.30;99.90;;;;;;4979330;28;20030;-76
2023/06/25 00:59:36;;;;;;;18.98;12.68;;;18.30;99.90;;;;;;4963606;28;20023;-76
2023/06/25 01:02:25;;;;;;;29.98;18.23;;;18.30;99.90;;;;;;4979069;28;20278;-77
2023/06/25 01:04:57;;;;;;;26.75;16.88;;;18.30;99.90;;;;;;4979333;28;20045;-77
2023/06/25 01:07:25;;;;;;;22.15;14.40;;;18.20;99.90;;;;;;4979231;28;20033;-76
2023/06/25 01:09:50;;;;;;;18.70;11.68;;;18.20;99.90;;;;;;4979310;28;20188;-76
2023/06/25 01:12:16;;;;;;;16.00;10.05;;;18.20;99.90;;;;;;4979120;28;20023;-76
2023/06/25 01:14:42;;;;;;;15.23;10.05;;;18.20;99.90;;;;;;4979281;28;20084;-76
2023/06/25 01:17:09;;;;;;;17.90;10.00;;;18.20;99.90;;;;;;4963028;28;20030;-76
2023/06/25 01:19:35;;;;;;;16.05;9.70;;;18.10;99.90;;;;;;4974576;28;20165;-77
2023/06/25 01:22:03;;;;;;;15.25;9.30;;;18.20;99.90;;;;;;4970837;28;20054;-77
2023/06/25 01:24:30;;;;;;;16.05;10.48;;;18.10;99.90;;;;;;5040533;28;20022;-77
2023/06/25 01:26:59;;;;;;;15.45;9.80;;;18.10;99.90;;;;;;4995250;28;20027;-77
2023/06/25 01:29:26;;;;;;;15.23;10.10;;;18.10;99.90;;;;;;4949482;28;20030;-77
2023/06/25 01:31:53;;;;;;;16.25;9.77;;;18.10;99.90;;;;;;4980438;28;20260;-77
2023/06/25 01:34:20;;;;;;;15.05;9.93;;;18.10;99.90;;;;;;4982337;28;20027;-77
2023/06/25 01:36:49;;;;;;;15.73;10.15;;;18.00;99.90;;;;;;4982163;28;20027;-77
2023/06/25 01:39:16;;;;;;;16.17;10.20;;;18.00;99.90;;;;;;4966439;28;20031;-77
2023/06/25 01:41:43;;;;;;;16.75;10.70;;;17.90;99.90;;;;;;4981953;28;20039;-77
2023/06/25 01:44:11;;;;;;;15.00;10.30;;;17.90;99.90;;;;;;4982477;28;20057;-76
2023/06/25 01:46:37;;;;;;;16.70;10.57;;;17.90;99.90;;;;;;4982340;28;20038;-76
2023/06/25 01:49:03;;;;;;;14.98;10.20;;;17.80;99.90;;;;;;4982117;28;20039;-77
2023/06/25 01:51:31;;;;;;;15.15;9.75;;;17.80;99.90;;;;;;4965835;28;20023;-77
2023/06/25 01:53:57;;;;;;;16.52;10.70;;;17.80;99.90;;;;;;4966353;28;20272;-77
2023/06/25 01:56:23;;;;;;;15.55;10.50;;;17.80;99.90;;;;;;4965985;28;20035;-77
2023/06/25 01:58:52;;;;;;;14.07;9.20;;;17.80;99.90;;;;;;4949971;28;20103;-77
2023/06/25 02:01:19;;;;;;;16.25;10.55;;;17.80;99.90;;;;;;4966056;28;20045;-77
2023/06/25 02:03:44;;;;;;;15.23;10.15;;;17.70;99.90;;;;;;4981753;28;20033;-77
2023/06/25 02:06:10;;;;;;;16.88;10.40;;;17.70;99.90;;;;;;4965604;28;20051;-77
2023/06/25 02:08:36;;;;;;;15.57;10.32;;;17.70;99.90;;;;;;4965407;28;20072;-77
2023/06/25 02:11:01;;;;;;;16.73;10.32;;;18.60;99.90;;;;;;4981836;28;20090;-76
2023/06/25 02:13:27;;;;;;;15.82;10.23;;;17.60;99.90;;;;;;4981477;28;20094;-76
2023/06/25 02:15:53;;;;;;;14.77;10.00;;;17.60;99.90;;;;;;4981745;28;20279;-76
2023/06/25 02:18:18;;;;;;;17.20;10.18;;;17.50;99.90;;;;;;4981548;28;20023;-77
2023/06/25 02:20:44;;;;;;;16.88;9.82;;;17.50;99.90;;;;;;4983341;28;20343;-77
2023/06/25 02:23:10;;;;;;;14.93;9.60;;;17.50;99.90;;;;;;4968587;28;20034;-77
2023/06/25 02:25:36;;;;;;;16.20;10.18;;;17.50;99.90;;;;;;4984798;28;20093;-77
2023/06/25 02:28:01;;;;;;;17.65;11.45;;;17.40;99.90;;;;;;4984693;28;20180;-77
2023/06/25 02:30:27;;;;;;;15.25;10.07;;;17.40;99.90;;;;;;4984701;28;20054;-77
2023/06/25 02:32:53;;;;;;;17.23;11.80;;;17.40;99.90;;;;;;4992233;28;20042;-77
2023/06/25 02:35:18;;;;;;;17.65;10.85;;;17.40;99.90;;;;;;4965199;28;20054;-77
2023/06/25 02:37:44;;;;;;;17.58;11.57;;;17.50;99.90;;;;;;4981388;28;20055;-76
2023/06/25 02:40:10;;;;;;;17.35;11.18;;;17.50;99.90;;;;;;4965270;28;20120;-76
2023/06/25 02:42:36;;;;;;;17.45;11.18;;;17.40;99.90;;;;;;4980959;28;20237;-76
2023/06/25 02:45:02;;;;;;;18.80;11.68;;;17.40;99.90;;;;;;4981352;28;20022;-77
2023/06/25 02:47:28;;;;;;;17.55;11.38;;;17.40;99.90;;;;;;4980937;28;20027;-77
2023/06/25 02:49:53;;;;;;;15.95;11.00;;;17.40;99.90;;;;;;4933673;28;20026;-77
2023/06/25 02:52:19;;;;;;;17.25;11.60;;;17.40;99.90;;;;;;4964934;28;20280;-77
2023/06/25 02:54:45;;;;;;;18.77;12.52;;;17.40;99.90;;;;;;4981231;28;20046;-77
2023/06/25 02:57:10;;;;;;;18.42;11.55;;;17.40;99.90;;;;;;4964917;28;20286;-77
2023/06/25 02:59:36;;;;;;;17.45;12.18;;;17.40;99.90;;;;;;4965091;28;20019;-76
2023/06/25 03:02:02;;;;;;;16.88;11.10;;;17.40;99.90;;;;;;4980738;28;20300;-77
2023/06/25 03:04:27;;;;;;;19.08;12.18;;;17.40;99.90;;;;;;4980957;28;20176;-77
2023/06/25 03:06:53;;;;;;;16.83;11.40;;;17.40;99.90;;;;;;4964476;28;20026;-77
2023/06/25 03:09:19;;;;;;;17.60;11.52;;;17.30;99.90;;;;;;4964821;28;20266;-76
2023/06/25 03:11:44;;;;;;;16.45;11.27;;;17.30;99.90;;;;;;4964585;28;20034;-77
2023/06/25 03:14:10;;;;;;;18.38;12.10;;;17.30;99.90;;;;;;4964828;28;20031;-76
2023/06/25 03:16:36;;;;;;;17.92;11.45;;;17.20;99.90;;;;;;4980504;28;20030;-76
2023/06/25 03:19:02;;;;;;;19.30;11.80;;;17.20;99.90;;;;;;4987208;28;20051;-77
2023/06/25 03:21:29;;;;;;;17.92;11.85;;;17.20;99.90;;;;;;4980544;28;20042;-77
2023/06/25 03:23:54;;;;;;;16.80;11.40;;;17.10;99.90;;;;;;4980801;28;20026;-77
2023/06/25 03:26:20;;;;;;;17.50;11.27;;;17.10;99.90;;;;;;4964394;28;20053;-77
2023/06/25 03:28:46;;;;;;;18.42;12.15;;;17.10;99.90;;;;;;4964707;28;20125;-77
2023/06/25 03:31:11;;;;;;;18.88;11.80;;;17.10;99.90;;;;;;4991206;28;20046;-77
2023/06/25 03:33:37;;;;;;;17.48;11.80;;;17.10;99.90;;;;;;4967598;28;20022;-77
2023/06/25 03:36:03;;;;;;;16.80;10.82;;;17.10;99.90;;;;;;4983887;28;20022;-76
2023/06/25 03:38:29;;;;;;;16.55;11.40;;;17.10;99.90;;;;;;4983669;28;20018;-76
2023/06/25 03:40:54;;;;;;;18.23;11.35;;;17.20;99.90;;;;;;4983770;28;20212;-76
2023/06/25 03:43:20;;;;;;;19.88;11.13;;;17.20;99.90;;;;;;4983790;28;20295;-77
2023/06/25 03:45:46;;;;;;;17.35;11.65;;;17.20;99.90;;;;;;4999778;28;20029;-76
2023/06/25 03:48:12;;;;;;;17.80;11.20;;;17.20;99.90;;;;;;4967243;28;20101;-76
2023/06/25 03:50:37;;;;;;;18.80;11.32;;;17.20;99.90;;;;;;4983733;28;20052;-77
2023/06/25 03:53:03;;;;;;;16.30;11.23;;;17.30;99.90;;;;;;4967381;28;20018;-77
2023/06/25 03:55:29;;;;;;;19.00;11.27;;;17.30;99.90;;;;;;4966918;28;20318;-77
2023/06/25 03:57:56;;;;;;;17.38;11.38;;;17.30;99.90;;;;;;4983364;28;20113;-77
2023/06/25 04:00:22;;;;;;;17.35;11.80;;;17.30;99.90;;;;;;4983331;28;20174;-77
2023/06/25 04:02:48;;;;;;;17.85;11.85;;;17.30;99.90;;;;;;4999448;28;20167;-76
2023/06/25 04:05:13;;;;;;;19.25;11.73;;;17.30;99.90;;;;;;4951333;28;20094;-77
2023/06/25 04:07:39;;;;;;;16.58;11.30;;;17.40;99.90;;;;;;4967221;28;20085;-77
2023/06/25 04:10:05;;;;;;;17.67;11.18;;;17.30;99.90;;;;;;4983489;28;20109;-77
2023/06/25 04:12:31;;;;;;;18.02;11.32;;;17.40;99.90;;;;;;4983110;28;20026;-76
2023/06/25 04:14:57;;;;;;;17.30;11.30;;;17.40;99.90;;;;;;4983313;28;20022;-77
2023/06/25 04:17:22;;;;;;;18.20;10.60;;;17.50;99.90;;;;;;4982973;28;20026;-76
2023/06/25 04:19:48;;;;;;;19.20;11.95;;;17.60;99.90;;;;;;4982856;28;20081;-76
2023/06/25 04:22:14;;;;;;;18.10;11.32;;;17.70;99.90;;;;;;4967039;28;20042;-77
2023/06/25 04:24:39;;;;;;;18.02;10.77;;;17.70;99.90;;;;;;4999375;28;20024;-77
2023/06/25 04:27:06;;;;;;;16.83;10.40;;;17.80;99.90;;;;;;4999160;28;20025;-77
2023/06/25 04:29:31;;;;;;;16.80;10.70;;;17.90;99.90;;;;;;4999316;28;20034;-77
2023/06/25 04:31:57;;;;;;;17.50;10.43;;;17.90;99.90;;;;;;4982853;28;20090;-77
2023/06/25 04:34:23;;;;;;;16.70;10.80;;;18.00;99.90;;;;;;4987913;28;20030;-77
2023/06/25 04:36:48;;;;;;;17.25;10.57;;;18.00;99.90;;;;;;4963405;28;20023;-77
2023/06/25 04:39:14;;;;;;;16.52;10.65;;;18.10;99.90;;;;;;4963627;28;20265;-76
2023/06/25 04:41:39;;;;;;;17.80;10.85;;;18.10;99.90;;;;;;4947430;28;20035;-77
2023/06/25 04:44:05;;;;;;;16.98;10.60;;;18.20;99.90;;;;;;4979881;28;20047;-76
2023/06/25 04:46:31;;;;;;;17.95;10.63;;;18.20;99.90;;;;;;4963337;28;20387;-77
2023/06/25 04:48:58;;;;;;;16.75;10.10;;;18.30;99.90;;;;;;4964029;28;20156;-77
2023/06/25 04:51:23;;;;;;;16.98;10.15;;;18.30;99.90;;;;;;4947411;28;20072;-76
2023/06/25 04:53:49;;;;;;;18.60;11.00;;;18.30;99.90;;;;;;4979635;28;20030;-76
2023/06/25 04:56:17;;;;;;;17.25;10.52;;;18.40;99.90;;;;;;4979364;28;20058;-77
2023/06/25 04:58:43;;;;;;;17.67;10.20;;;18.50;99.90;;;;;;4963741;28;20257;-76
2023/06/25 05:01:09;;;;;;;19.60;10.73;;;18.50;99.90;;;;;;4979252;28;20079;-77
2023/06/25 05:03:34;;;;;;;16.50;10.32;;;18.60;99.90;;;;;;4979265;28;20253;-77
2023/06/25 05:06:00;;;;;;;15.32;10.45;;;18.70;99.90;;;;;;4981090;28;20108;-76
2023/06/25 05:08:26;;;;;;;17.45;9.57;;;18.80;99.90;;;;;;4982804;28;20038;-76
2023/06/25 05:10:52;;;;;;;17.33;9.60;;;18.90;99.90;;;;;;4982770;28;20031;-76
2023/06/25 05:13:17;;;;;;;17.27;9.60;;;18.90;99.90;;;;;;4966447;28;20038;-76
2023/06/25 05:15:43;;;;;;;15.30;9.45;;;19.10;99.90;;;;;;4966623;28;20031;-76
2023/06/25 05:18:09;;;;;;;16.30;10.35;;;19.20;99.90;;;;;;4969008;28;20133;-76
2023/06/25 05:20:35;;;;;;;16.77;9.88;;;19.30;99.90;;;;;;4966311;28;20042;-76
2023/06/25 05:23:05;;;;;;;21.55;10.82;;;19.40;99.90;;;;;;4982443;28;20091;-77
2023/06/25 05:25:32;;;;;;;15.05;8.98;;;19.50;99.90;;;;;;4966567;28;20184;-76
2023/06/25 05:28:01;;;;;;;14.70;8.90;;;19.60;99.90;;;;;;4982600;28;20156;-77
2023/06/25 05:30:28;;;;;;;16.60;10.23;;;19.70;99.90;;;;;;4990036;28;20163;-77
2023/06/25 05:32:53;;;;;;;15.20;9.57;;;19.70;99.90;;;;;;4985612;28;20034;-77
2023/06/25 05:35:19;;;;;;;17.38;10.55;;;19.80;99.90;;;;;;5053807;28;20030;-76
2023/06/25 05:37:45;;;;;;;15.95;10.07;;;19.80;99.90;;;;;;4985532;28;20049;-76
2023/06/25 05:40:11;;;;;;;15.60;9.57;;;19.90;99.90;;;;;;5001918;28;20095;-76
2023/06/25 05:42:37;;;;;;;15.20;9.38;;;20.00;99.90;;;;;;5001404;28;20022;-77
2023/06/25 05:45:03;;;;;;;15.75;9.20;;;20.10;99.90;;;;;;4969398;28;20076;-77
2023/06/25 05:47:28;;;;;;;14.45;8.82;;;20.30;99.90;;;;;;4985247;28;20060;-77
2023/06/25 05:49:54;;;;;;;15.85;8.98;;;20.40;99.90;;;;;;5001527;28;20093;-77
2023/06/25 05:52:20;;;;;;;14.27;8.30;;;20.60;99.90;;;;;;4985176;28;20030;-77
2023/06/25 05:54:45;;;;;;;15.25;8.90;;;20.60;99.90;;;;;;5001347;28;20030;-77
2023/06/25 05:57:12;;;;;;;13.70;8.48;;;20.70;99.90;;;;;;5001296;28;20225;-77
2023/06/25 05:59:37;;;;;;;14.07;8.38;;;20.80;99.90;;;;;;5001514;28;20175;-77
2023/06/25 06:02:04;;;;;;;15.77;8.23;;;20.90;99.90;;;;;;5001290;28;20030;-77
2023/06/25 06:04:30;;;;;;;14.05;7.78;;;21.00;99.90;;;;;;5001193;28;20026;-77
2023/06/25 06:06:55;;;;;;;12.90;7.57;;;21.00;99.90;;;;;;4968850;28;20229;-77
2023/06/25 06:09:21;;;;;;;12.82;7.80;;;21.10;99.90;;;;;;5001267;28;20034;-77
2023/06/25 06:11:47;;;;;;;12.48;7.53;;;21.20;99.90;;;;;;4984888;28;20030;-76
2023/06/25 06:14:12;;;;;;;13.48;7.85;;;21.20;99.90;;;;;;4984971;28;20323;-76
2023/06/25 06:16:38;;;;;;;12.40;7.30;;;21.40;99.90;;;;;;4984394;28;20030;-76
2023/06/25 06:19:04;;;;;;;12.68;7.40;;;21.50;99.90;;;;;;4989274;28;20027;-76
2023/06/25 06:21:29;;;;;;;13.77;7.35;;;21.60;99.90;;;;;;4981292;28;20043;-77
2023/06/25 06:23:55;;;;;;;12.50;7.10;;;21.70;99.90;;;;;;4965659;28;20090;-77
2023/06/25 06:26:21;;;;;;;12.38;6.32;;;21.70;99.90;;;;;;4981323;28;20090;-77
2023/06/25 06:28:46;;;;;;;11.23;6.57;;;21.90;99.90;;;;;;4965626;28;20026;-77
2023/06/25 06:31:12;;;;;;;12.50;6.43;;;21.90;99.90;;;;;;4981154;28;20039;-77
2023/06/25 06:33:38;;;;;;;12.00;6.85;;;22.10;99.90;;;;;;5053102;28;20175;-77
2023/06/25 06:36:03;;;;;;;12.27;6.85;;;22.10;99.90;;;;;;5052836;28;20041;-76
2023/06/25 06:38:29;;;;;;;11.95;6.22;;;22.20;99.90;;;;;;5000723;28;20058;-76
2023/06/25 06:40:55;;;;;;;11.80;6.75;;;22.30;99.90;;;;;;5000735;28;20030;-76
2023/06/25 06:43:20;;;;;;;10.75;5.90;;;22.40;99.90;;;;;;4984387;28;20086;-77
2023/06/25 06:45:46;;;;;;;12.60;6.53;;;23.70;99.90;;;;;;5052679;28;20273;-77
2023/06/25 06:48:12;;;;;;;11.93;6.68;;;22.60;99.90;;;;;;4984323;28;20026;-77
2023/06/25 06:50:37;;;;;;;12.23;6.70;;;22.70;99.90;;;;;;4972707;28;20271;-77
2023/06/25 06:53:03;;;;;;;13.00;6.47;;;22.80;99.90;;;;;;4964938;28;20027;-76
2023/06/25 06:55:29;;;;;;;11.95;6.35;;;22.90;99.90;;;;;;5032525;28;20033;-76
2023/06/25 06:57:54;;;;;;;10.57;5.53;;;23.00;99.90;;;;;;4980948;28;20041;-76
2023/06/25 07:00:20;;;;;;;9.57;5.55;;;23.10;99.90;;;;;;4981007;28;20289;-76
2023/06/25 07:02:46;;;;;;;12.07;6.32;;;23.20;99.90;;;;;;4964801;28;20022;-76
2023/06/25 07:05:12;;;;;;;11.88;6.40;;;23.30;99.90;;;;;;4964949;28;20033;-77
2023/06/25 07:07:39;;;;;;;12.20;6.07;;;23.40;99.90;;;;;;4980794;28;20213;-76
2023/06/25 07:10:05;;;;;;;12.00;6.65;;;23.50;99.90;;;;;;4980946;28;20033;-77
2023/06/25 07:12:31;;;;;;;11.57;6.47;;;23.60;99.90;;;;;;4948482;28;20018;-77
2023/06/25 07:14:56;;;;;;;10.50;5.97;;;23.70;99.90;;;;;;4980756;28;20057;-76
2023/06/25 07:17:24;;;;;;;11.13;7.22;;;23.80;99.90;;;;;;4964560;28;20030;-77
2023/06/25 07:19:50;;;;;;;13.43;7.72;;;23.90;99.90;;;;;;4983231;28;20078;-77
2023/06/25 07:22:16;;;;;;;12.98;7.05;;;24.00;99.90;;;;;;4999900;28;20079;-77
2023/06/25 07:24:42;;;;;;;11.50;7.47;;;24.10;99.90;;;;;;5000348;28;20076;-77
2023/06/25 07:27:08;;;;;;;12.40;7.53;;;24.20;99.90;;;;;;5000100;28;20030;-76
2023/06/25 07:29:34;;;;;;;13.60;8.10;;;24.30;99.90;;;;;;4999235;28;20087;-76
2023/06/25 07:31:59;;;;;;;12.77;8.23;;;24.30;99.90;;;;;;4973678;28;20030;-76
2023/06/25 07:34:25;;;;;;;14.02;8.48;;;24.40;99.90;;;;;;4980962;28;20037;-76
2023/06/25 07:36:51;;;;;;;12.68;7.72;;;24.40;99.90;;;;;;4964277;28;20297;-76
2023/06/25 07:39:29;;;;;;;14.60;8.82;;;24.50;99.90;;;;;;4980506;28;20077;-76
2023/06/25 07:41:59;;;;;;;12.98;8.48;;;24.60;99.90;;;;;;4980340;28;20054;-76
2023/06/25 07:44:25;;;;;;;13.38;8.13;;;24.50;99.90;;;;;;4980493;28;20080;-76
2023/06/25 07:46:51;;;;;;;13.32;8.70;;;24.70;99.90;;;;;;4980314;28;20038;-76
2023/06/25 07:49:17;;;;;;;13.15;7.63;;;24.60;99.90;;;;;;4964427;28;20065;-76
2023/06/25 07:51:50;;;;;;;15.05;9.50;;;24.80;99.90;;;;;;4980309;28;20030;-76
2023/06/25 07:54:16;;;;;;;14.48;8.57;;;24.70;99.90;;;;;;4980443;28;20023;-76
2023/06/25 07:56:44;;;;;;;13.90;8.98;;;25.00;99.90;;;;;;4948130;28;20264;-76
2023/06/25 07:59:13;;;;;;;14.38;8.32;;;25.10;99.90;;;;;;4980086;28;20049;-76
2023/06/25 08:01:38;;;;;;;13.65;9.00;;;25.20;99.90;;;;;;4963874;28;20035;-76
2023/06/25 08:04:04;;;;;;;12.85;7.97;;;25.20;99.90;;;;;;4980212;28;20030;-76
2023/06/25 08:06:30;;;;;;;13.52;9.30;;;25.30;99.90;;;;;;4963961;28;20046;-76
2023/06/25 08:08:55;;;;;;;13.70;8.35;;;26.00;99.90;;;;;;4980554;28;20232;-76
2023/06/25 08:11:21;;;;;;;13.13;8.18;;;25.50;99.90;;;;;;4963868;28;20050;-76
2023/06/25 08:13:47;;;;;;;13.60;8.88;;;25.60;99.90;;;;;;4964263;28;20094;-76
2023/06/25 08:16:13;;;;;;;10.75;7.00;;;25.60;99.90;;;;;;4963978;28;20288;-76
2023/06/25 08:18:38;;;;;;;14.10;8.43;;;25.70;99.90;;;;;;4973113;28;20073;-76
2023/06/25 08:21:04;;;;;;;14.68;7.20;;;25.80;99.90;;;;;;4965433;28;20039;-76
2023/06/25 08:23:30;;;;;;;15.35;8.15;;;25.80;99.90;;;;;;4979893;28;20226;-76
2023/06/25 08:25:55;;;;;;;12.75;8.60;;;25.90;99.90;;;;;;4980018;28;20035;-76
2023/06/25 08:28:21;;;;;;;13.65;8.27;;;25.90;99.90;;;;;;4963776;28;20042;-76
2023/06/25 08:30:47;;;;;;;13.85;7.78;;;26.00;99.90;;;;;;5047106;28;20178;-76
2023/06/25 08:33:12;;;;;;;14.00;8.68;;;26.10;99.90;;;;;;5051021;28;20339;-76
2023/06/25 08:35:38;;;;;;;11.95;7.65;;;26.10;99.90;;;;;;4999491;28;20260;-76
2023/06/25 08:38:04;;;;;;;12.88;8.32;;;26.20;99.90;;;;;;4983010;28;20037;-76
2023/06/25 08:40:34;;;;;;;12.48;8.13;;;26.30;99.90;;;;;;5000316;28;20042;-76
2023/06/25 08:43:00;;;;;;;11.23;7.32;;;26.40;99.90;;;;;;5002559;28;20073;-76
2023/06/25 08:45:26;;;;;;;11.95;8.43;;;25.70;99.90;;;;;;5002718;28;20018;-76
2023/06/25 08:47:58;;;;;;;12.80;8.30;;;26.40;99.90;;;;;;5002549;28;20072;-76
2023/06/25 08:50:24;;;;;;;11.77;8.27;;;25.80;99.90;;;;;;5002750;28;20067;-76
2023/06/25 08:52:51;;;;;;;11.90;7.40;;;29.10;99.90;;;;;;4970106;28;20076;-76
2023/06/25 08:55:19;;;;;;;11.63;7.60;;;26.60;99.90;;;;;;4986475;28;20220;-76
2023/06/25 08:57:45;;;;;;;13.00;7.95;;;26.70;99.90;;;;;;5002301;28;20172;-76
2023/06/25 09:00:13;;;;;;;12.05;7.65;;;26.70;99.90;;;;;;4954087;28;20018;-76
2023/06/25 09:02:39;;;;;;;13.18;7.68;;;26.80;99.90;;;;;;5002237;28;20085;-76
2023/06/25 09:05:05;;;;;;;12.45;7.00;;;26.90;99.90;;;;;;4954316;28;20030;-76
2023/06/25 09:07:34;;;;;;;15.05;7.65;;;27.00;99.90;;;;;;4985975;28;20029;-76
2023/06/25 09:10:00;;;;;;;11.20;6.57;;;27.00;99.90;;;;;;4986273;28;20103;-76
2023/06/25 09:12:26;;;;;;;10.70;6.03;;;27.20;99.90;;;;;;4986038;28;20026;-76
2023/06/25 09:14:51;;;;;;;10.52;5.47;;;27.10;99.90;;;;;;5002411;28;20279;-76
2023/06/25 09:17:23;;;;;;;11.18;5.68;;;27.20;99.90;;;;;;5001796;28;20026;-76
2023/06/25 09:19:49;;;;;;;10.43;5.57;;;27.30;99.90;;;;;;4976778;28;20057;-77
2023/06/25 09:22:15;;;;;;;12.38;5.95;;;27.30;99.90;;;;;;4966260;28;20054;-76
2023/06/25 09:24:47;;;;;;;10.20;5.50;;;27.50;99.90;;;;;;4982647;28;20043;-76
2023/06/25 09:27:12;;;;;;;10.40;5.80;;;27.50;99.90;;;;;;4982328;28;20023;-76
2023/06/25 09:29:39;;;;;;;10.45;6.20;;;27.50;99.90;;;;;;4974088;28;20312;-76
2023/06/25 09:32:11;;;;;;;9.60;5.47;;;27.60;99.90;;;;;;4985586;28;20255;-76
2023/06/25 09:34:41;;;;;;;11.65;6.55;;;27.60;99.90;;;;;;5002172;28;20038;-77
2023/06/25 09:37:07;;;;;;;9.98;4.97;;;27.70;99.90;;;;;;5001678;28;20184;-77
2023/06/25 09:39:32;;;;;;;10.40;5.05;;;27.70;99.90;;;;;;5002058;28;20075;-76
2023/06/25 09:42:02;;;;;;;11.85;6.28;;;27.80;99.90;;;;;;5001661;28;20198;-76
2023/06/25 09:44:28;;;;;;;11.82;5.65;;;27.40;99.90;;;;;;4985602;28;20029;-76
2023/06/25 09:47:05;;;;;;;9.55;5.18;;;28.00;99.90;;;;;;5001696;28;20240;-76
2023/06/25 09:49:32;;;;;;;9.73;5.13;;;26.40;99.90;;;;;;5001836;28;20022;-76
2023/06/25 09:52:04;;;;;;;10.48;5.53;;;28.00;99.90;;;;;;5000691;28;20234;-76
2023/06/25 09:54:31;;;;;;;8.63;4.25;;;28.10;99.90;;;;;;4985494;28;20256;-77
2023/06/25 09:57:00;;;;;;;9.07;4.50;;;28.10;99.90;;;;;;5001439;28;20276;-77
2023/06/25 09:59:27;;;;;;;9.95;4.63;;;28.10;99.90;;;;;;4985309;28;20026;-77
2023/06/25 10:01:53;;;;;;;9.90;4.80;;;28.20;99.90;;;;;;4984919;28;20030;-77
2023/06/25 10:04:19;;;;;;;9.80;4.57;;;28.30;99.90;;;;;;4985269;28;20057;-77
2023/06/25 10:06:46;;;;;;;9.57;4.50;;;28.40;99.90;;;;;;4968946;28;20026;-77
2023/06/25 10:09:13;;;;;;;8.48;4.40;;;28.40;99.90;;;;;;5001564;28;20034;-76
2023/06/25 10:11:52;;;;;;;9.30;4.75;;;28.50;99.90;;;;;;5001221;28;20034;-76
2023/06/25 10:14:18;;;;;;;9.18;4.85;;;28.50;99.90;;;;;;5001161;28;20076;-76
2023/06/25 10:16:55;;;;;;;9.57;4.80;;;28.50;99.90;;;;;;4985063;28;20026;-75
2023/06/25 10:19:26;;;;;;;12.02;5.22;;;28.60;99.90;;;;;;4986270;28;20033;-76
2023/06/25 10:22:07;;;;;;;9.43;4.30;;;28.60;99.90;;;;;;4965309;28;20055;-76
2023/06/25 10:24:49;;;;;;;9.77;4.50;;;28.70;99.90;;;;;;4989354;28;20339;-76
2023/06/25 10:27:26;;;;;;;9.82;4.57;;;28.70;99.90;;;;;;4984794;28;20315;-76
2023/06/25 10:29:53;;;;;;;8.20;4.00;;;28.80;99.90;;;;;;5001420;28;20057;-76
2023/06/25 10:32:29;;;;;;;8.90;4.28;;;28.80;99.90;;;;;;4967681;28;20035;-76
2023/06/25 10:35:00;;;;;;;9.38;4.53;;;28.80;99.90;;;;;;4981636;28;20033;-76
2023/06/25 10:37:30;;;;;;;8.75;4.10;;;28.90;99.90;;;;;;4981419;28;20023;-76
2023/06/25 10:40:06;;;;;;;8.52;3.80;;;28.90;99.90;;;;;;4981619;28;20176;-75
2023/06/25 10:42:32;;;;;;;8.43;4.20;;;28.90;99.90;;;;;;4965184;28;20184;-76
2023/06/25 10:45:02;;;;;;;8.98;3.90;;;29.00;99.90;;;;;;4965954;28;20034;-76
2023/06/25 10:47:28;;;;;;;9.65;3.90;;;29.00;99.90;;;;;;4965186;28;20027;-76
2023/06/25 10:49:54;;;;;;;8.45;4.00;;;29.10;99.90;;;;;;4949367;28;20053;-76
2023/06/25 10:52:20;;;;;;;8.20;3.40;;;29.10;99.90;;;;;;4964977;28;20229;-76
2023/06/25 10:54:46;;;;;;;9.98;4.07;;;29.60;99.90;;;;;;4965185;28;20034;-76
2023/06/25 10:57:13;;;;;;;8.48;4.00;;;29.20;99.90;;;;;;4964977;28;20019;-75
2023/06/25 10:59:40;;;;;;;9.02;4.00;;;29.30;99.90;;;;;;4981364;28;20171;-76
2023/06/25 11:02:13;;;;;;;8.77;3.60;;;29.20;99.90;;;;;;4964934;28;20069;-76
2023/06/25 11:04:39;;;;;;;8.50;3.72;;;29.30;99.90;;;;;;4981243;28;20039;-76
2023/06/25 11:07:04;;;;;;;8.18;3.28;;;29.30;99.90;;;;;;4980869;28;20076;-76
2023/06/25 11:09:30;;;;;;;9.10;3.70;;;29.30;99.90;;;;;;4981223;28;20019;-77
2023/06/25 11:11:56;;;;;;;9.27;3.55;;;29.30;99.90;;;;;;4964855;28;20195;-75
2023/06/25 11:14:23;;;;;;;8.77;3.72;;;29.40;99.90;;;;;;4964976;28;20090;-75
2023/06/25 11:16:49;;;;;;;7.90;3.70;;;29.50;99.90;;;;;;4980655;28;20185;-76
2023/06/25 11:19:15;;;;;;;7.78;3.35;;;29.50;99.90;;;;;;4964744;28;20249;-75
2023/06/25 11:21:40;;;;;;;8.68;3.63;;;29.70;99.90;;;;;;4980433;28;20334;-75
2023/06/25 11:24:08;;;;;;;7.18;3.22;;;29.70;99.90;;;;;;4981080;28;20039;-75
2023/06/25 11:26:43;;;;;;;7.90;3.40;;;29.70;99.90;;;;;;4980729;28;20022;-75
2023/06/25 11:29:10;;;;;;;7.82;3.67;;;29.60;99.90;;;;;;4972205;28;20181;-76
2023/06/25 11:31:44;;;;;;;8.43;3.70;;;29.60;99.90;;;;;;4983541;28;20260;-75
2023/06/25 11:34:23;;;;;;;7.97;3.42;;;29.70;99.90;;;;;;4964764;28;20076;-75
2023/06/25 11:36:49;;;;;;;9.02;3.80;;;29.70;99.90;;;;;;4980279;28;20021;-75
2023/06/25 11:39:15;;;;;;;7.90;3.38;;;29.60;99.90;;;;;;4980810;28;20027;-76
2023/06/25 11:41:43;;;;;;;7.38;3.40;;;29.80;99.90;;;;;;4964503;28;20064;-75
2023/06/25 11:44:19;;;;;;;9.98;3.80;;;29.80;99.90;;;;;;4980835;28;20019;-76
2023/06/25 11:46:54;;;;;;;9.73;3.65;;;29.80;99.90;;;;;;4964194;28;20034;-76
2023/06/25 11:49:21;;;;;;;9.98;4.00;;;29.90;99.90;;;;;;4980549;28;20022;-75
2023/06/25 11:51:46;;;;;;;7.68;3.53;;;30.00;99.90;;;;;;4948444;28;20090;-75
2023/06/25 11:54:12;;;;;;;9.52;3.88;;;30.10;99.90;;;;;;4964432;28;20046;-75
2023/06/25 11:56:37;;;;;;;8.63;3.70;;;30.10;99.90;;;;;;4964105;28;20031;-75
2023/06/25 11:59:04;;;;;;;9.05;3.85;;;30.20;99.90;;;;;;4948637;28;20314;-75
2023/06/25 12:01:29;;;;;;;7.85;3.67;;;30.30;99.90;;;;;;4963808;28;20035;-74
2023/06/25 12:03:55;;;;;;;8.10;3.67;;;30.40;99.90;;;;;;4980447;28;20221;-76
2023/06/25 12:06:23;;;;;;;9.07;3.78;;;30.40;99.90;;;;;;4963923;28;20334;-77
2023/06/25 12:08:48;;;;;;;7.80;3.60;;;30.30;99.90;;;;;;4963841;28;20098;-74
2023/06/25 12:11:14;;;;;;;8.30;3.58;;;30.30;99.90;;;;;;5031098;28;20038;-74
2023/06/25 12:13:40;;;;;;;8.55;3.42;;;30.40;99.90;;;;;;4964017;28;20041;-74
2023/06/25 12:16:05;;;;;;;8.88;3.78;;;31.20;99.90;;;;;;4979207;28;20264;-75
2023/06/25 12:18:31;;;;;;;9.15;3.88;;;30.60;99.90;;;;;;4963485;28;20086;-74
2023/06/25 12:20:57;;;;;;;8.20;3.85;;;30.50;99.90;;;;;;5030801;28;20077;-74
2023/06/25 12:23:23;;;;;;;8.43;3.60;;;29.00;99.90;;;;;;4960371;28;20284;-74
2023/06/25 12:25:48;;;;;;;8.40;3.90;;;30.50;99.90;;;;;;4947919;28;20065;-74
2023/06/25 12:28:14;;;;;;;8.65;3.60;;;30.50;99.90;;;;;;4963509;28;20265;-75
2023/06/25 12:30:40;;;;;;;9.07;3.67;;;30.50;99.90;;;;;;4963582;28;20083;-75
2023/06/25 12:33:06;;;;;;;8.82;3.75;;;30.50;99.90;;;;;;4947384;28;20019;-75